Time;durP1;ratioP1;P1;durP2;ratioP2;P2;SDS_P1;SDS_P2;PMS_P1;PMS_P2;Temp;Humidity;BMP_temperature;BMP_pressure;BME280_temperature;BME280_humidity;BME280_pressure;Samples;Min_cycle;Max_cycle;Signal;HPM_P1;HPM_P2
2022/06/27 00:01:56;;;;;;;9.30;8.50;;;24.60;1.00;;;;;;5031225;28;20613;-55
2022/06/27 00:04:21;;;;;;;10.63;9.70;;;24.50;1.00;;;;;;5026135;28;20193;-55
2022/06/27 00:06:47;;;;;;;9.70;9.00;;;24.40;1.00;;;;;;5029551;28;20642;-52
2022/06/27 00:09:13;;;;;;;10.33;9.63;;;24.50;1.00;;;;;;5027939;28;20532;-53
2022/06/27 00:11:38;;;;;;;9.70;9.00;;;24.40;1.00;;;;;;5029243;28;20220;-54
2022/06/27 00:14:04;;;;;;;9.33;8.63;;;24.40;1.00;;;;;;5023858;28;20455;-54
2022/06/27 00:16:30;;;;;;;10.27;9.30;;;24.40;1.00;;;;;;5029999;28;20673;-53
2022/06/27 00:18:55;;;;;;;9.97;9.10;;;24.30;1.00;;;;;;5027178;28;20200;-56
2022/06/27 00:21:21;;;;;;;10.93;10.10;;;24.40;1.00;;;;;;5033653;28;20619;-53
2022/06/27 00:23:47;;;;;;;10.93;10.13;;;24.30;1.00;;;;;;5028105;28;20455;-55
2022/06/27 00:26:13;;;;;;;10.60;9.67;;;24.30;1.00;;;;;;5029784;28;20263;-54
2022/06/27 00:28:38;;;;;;;11.07;10.27;;;24.20;1.00;;;;;;5028003;28;20225;-54
2022/06/27 00:31:07;;;;;;;10.80;9.90;;;24.20;1.00;;;;;;5031702;28;20288;-54
2022/06/27 00:33:32;;;;;;;11.10;10.30;;;24.10;1.00;;;;;;5026937;28;20199;-54
2022/06/27 00:35:58;;;;;;;10.43;9.73;;;24.10;1.00;;;;;;5025866;28;20443;-53
2022/06/27 00:38:23;;;;;;;10.40;9.70;;;24.20;1.00;;;;;;5027820;28;20207;-54
2022/06/27 00:40:49;;;;;;;11.90;10.90;;;24.20;1.00;;;;;;5029618;28;20196;-52
2022/06/27 00:43:15;;;;;;;11.00;10.17;;;24.10;1.00;;;;;;5027712;28;20193;-54
2022/06/27 00:45:40;;;;;;;11.20;10.30;;;24.10;1.00;;;;;;5029077;28;20196;-54
2022/06/27 00:48:06;;;;;;;10.03;9.33;;;24.10;1.00;;;;;;5030086;28;20243;-53
2022/06/27 00:50:32;;;;;;;10.80;10.00;;;24.00;1.00;;;;;;5027951;28;20524;-55
2022/06/27 00:52:57;;;;;;;11.50;10.60;;;24.00;1.00;;;;;;5028123;28;20193;-54
2022/06/27 00:55:24;;;;;;;11.27;10.40;;;23.90;1.00;;;;;;5026084;28;20195;-54
2022/06/27 00:57:50;;;;;;;11.40;10.60;;;23.90;1.00;;;;;;5029592;28;20276;-54
2022/06/27 01:00:16;;;;;;;10.73;9.83;;;23.90;1.00;;;;;;5030219;28;20530;-54
2022/06/27 01:02:42;;;;;;;11.37;10.47;;;23.80;1.00;;;;;;5028072;28;20528;-53
2022/06/27 01:05:10;;;;;;;10.60;9.80;;;23.80;1.00;;;;;;5028832;28;20558;-55
2022/06/27 01:07:38;;;;;;;12.30;11.30;;;23.80;1.00;;;;;;5025080;28;20228;-54
2022/06/27 01:10:04;;;;;;;11.60;10.70;;;23.80;1.00;;;;;;5024847;28;20439;-53
2022/06/27 01:12:29;;;;;;;12.00;11.10;;;23.80;1.00;;;;;;5026383;28;20481;-53
2022/06/27 01:14:55;;;;;;;11.13;10.13;;;23.80;1.00;;;;;;5028757;28;20447;-54
2022/06/27 01:17:21;;;;;;;11.80;10.90;;;23.70;1.00;;;;;;5032363;28;20242;-52
2022/06/27 01:19:47;;;;;;;11.27;10.37;;;23.70;1.00;;;;;;5030503;28;20199;-53
2022/06/27 01:22:12;;;;;;;11.50;10.50;;;23.60;1.00;;;;;;5034210;28;20184;-54
2022/06/27 01:24:38;;;;;;;10.77;9.87;;;23.60;1.00;;;;;;5026552;28;20242;-56
2022/06/27 01:27:05;;;;;;;10.50;9.50;;;23.60;1.00;;;;;;5032403;28;20235;-55
2022/06/27 01:29:31;;;;;;;11.50;10.60;;;23.70;1.00;;;;;;5024521;28;20675;-53
2022/06/27 01:31:56;;;;;;;11.73;10.93;;;23.70;1.00;;;;;;5031005;28;20564;-53
2022/06/27 01:34:22;;;;;;;12.33;11.20;;;23.70;1.00;;;;;;5027093;28;20181;-55
2022/06/27 01:36:48;;;;;;;11.70;10.60;;;23.70;1.00;;;;;;5032434;28;20662;-56
2022/06/27 01:39:22;;;;;;;11.37;10.57;;;23.60;1.00;;;;;;5028591;28;20251;-55
2022/06/27 01:41:49;;;;;;;12.53;11.53;;;23.60;1.00;;;;;;5029998;28;20196;-53
2022/06/27 01:44:15;;;;;;;12.60;11.30;;;23.60;1.00;;;;;;5029254;28;20481;-54
2022/06/27 01:47:00;;;;;;;12.17;11.23;;;23.50;1.00;;;;;;5032349;28;20443;-53
2022/06/27 01:49:27;;;;;;;11.50;10.60;;;23.40;1.00;;;;;;5029089;28;20451;-52
2022/06/27 01:51:55;;;;;;;11.23;10.43;;;23.30;1.00;;;;;;5029787;28;20983;-55
2022/06/27 01:54:22;;;;;;;11.30;10.43;;;23.20;1.00;;;;;;5028602;28;20443;-55
2022/06/27 01:56:49;;;;;;;11.67;10.77;;;23.10;1.00;;;;;;5032118;28;20435;-53
2022/06/27 01:59:19;;;;;;;11.30;10.40;;;23.20;1.00;;;;;;5024175;28;20600;-54
2022/06/27 02:01:45;;;;;;;11.30;10.50;;;23.10;1.00;;;;;;5021898;28;20455;-55
2022/06/27 02:04:13;;;;;;;11.53;10.50;;;23.10;1.00;;;;;;5026857;28;20450;-52
2022/06/27 02:06:40;;;;;;;11.13;10.33;;;23.10;1.00;;;;;;5030745;28;20801;-55
2022/06/27 02:09:07;;;;;;;12.63;11.73;;;23.10;1.00;;;;;;5028656;28;20470;-54
2022/06/27 02:11:34;;;;;;;12.67;11.70;;;23.10;1.00;;;;;;5029459;28;20471;-54
2022/06/27 02:14:00;;;;;;;12.83;11.83;;;23.00;1.00;;;;;;5028060;28;20447;-53
2022/06/27 02:16:26;;;;;;;11.80;10.80;;;23.00;1.00;;;;;;5030985;28;20437;-53
2022/06/27 02:18:52;;;;;;;12.03;11.13;;;22.90;1.00;;;;;;5029630;28;20576;-56
2022/06/27 02:21:20;;;;;;;11.87;10.90;;;22.90;1.00;;;;;;5026282;28;20193;-55
2022/06/27 02:23:47;;;;;;;12.07;11.17;;;22.90;1.00;;;;;;5028370;28;20478;-53
2022/06/27 02:26:14;;;;;;;12.10;11.20;;;22.90;1.00;;;;;;5025955;28;20453;-53
2022/06/27 02:28:41;;;;;;;12.27;11.37;;;22.90;1.00;;;;;;5027022;28;20466;-56
2022/06/27 02:31:08;;;;;;;13.13;12.10;;;22.80;1.00;;;;;;5027085;28;20949;-54
2022/06/27 02:33:42;;;;;;;11.93;11.03;;;22.70;1.00;;;;;;5040242;28;20498;-51
2022/06/27 02:36:10;;;;;;;12.73;11.63;;;22.70;1.00;;;;;;5028561;28;20451;-54
2022/06/27 02:38:39;;;;;;;12.63;11.60;;;22.90;1.00;;;;;;5025941;28;20445;-54
2022/06/27 02:41:07;;;;;;;12.60;11.53;;;22.70;1.00;;;;;;5035881;28;20439;-55
2022/06/27 02:43:35;;;;;;;13.97;12.70;;;22.70;1.00;;;;;;5029839;28;20443;-53
2022/06/27 02:46:01;;;;;;;12.40;11.50;;;22.70;1.00;;;;;;5024686;28;20466;-55
2022/06/27 02:48:30;;;;;;;13.13;11.87;;;22.80;1.00;;;;;;5029118;28;20471;-55
2022/06/27 02:51:01;;;;;;;13.00;12.00;;;22.70;1.00;;;;;;5027247;28;20471;-53
2022/06/27 02:53:31;;;;;;;13.73;12.73;;;22.70;1.00;;;;;;5022517;28;21092;-53
2022/06/27 02:56:01;;;;;;;12.63;11.63;;;22.60;1.00;;;;;;5023064;28;20458;-53
2022/06/27 02:58:52;;;;;;;13.27;12.27;;;22.40;1.00;;;;;;5028126;28;20770;-53
2022/06/27 03:01:20;;;;;;;12.90;11.80;;;22.40;1.00;;;;;;5024325;28;20903;-55
2022/06/27 03:03:48;;;;;;;12.97;11.80;;;22.40;1.00;;;;;;5029353;28;20451;-52
2022/06/27 03:06:14;;;;;;;13.87;12.67;;;22.30;1.00;;;;;;5026140;28;20768;-56
2022/06/27 03:08:45;;;;;;;14.30;13.20;;;22.20;1.00;;;;;;5027808;28;20478;-54
2022/06/27 03:11:13;;;;;;;13.97;12.97;;;22.20;1.00;;;;;;5026428;28;20197;-55
2022/06/27 03:13:38;;;;;;;12.70;11.70;;;22.20;1.00;;;;;;5029628;28;20448;-53
2022/06/27 03:16:04;;;;;;;14.30;13.20;;;22.30;1.00;;;;;;5024436;28;21265;-53
2022/06/27 03:18:30;;;;;;;12.67;11.77;;;22.30;1.00;;;;;;5030176;28;20185;-54
2022/06/27 03:20:56;;;;;;;14.70;13.17;;;22.30;1.00;;;;;;5027273;28;20872;-53
2022/06/27 03:23:22;;;;;;;13.33;12.30;;;22.30;1.00;;;;;;5026170;28;20522;-55
2022/06/27 03:25:48;;;;;;;13.87;12.70;;;22.40;1.00;;;;;;5028525;28;20201;-55
2022/06/27 03:28:14;;;;;;;13.30;12.30;;;22.50;1.00;;;;;;5028418;28;20217;-52
2022/06/27 03:30:39;;;;;;;12.67;11.67;;;22.50;1.00;;;;;;5028623;28;20454;-54
2022/06/27 03:33:05;;;;;;;13.70;12.50;;;22.80;1.00;;;;;;5029047;28;20180;-55
2022/06/27 03:35:31;;;;;;;12.23;11.33;;;23.10;1.00;;;;;;5026361;28;20197;-54
2022/06/27 03:37:57;;;;;;;12.07;11.00;;;23.40;1.00;;;;;;5028954;28;20542;-55
2022/06/27 03:40:22;;;;;;;11.53;10.73;;;23.60;1.00;;;;;;5027547;28;20188;-53
2022/06/27 03:42:48;;;;;;;10.97;10.17;;;23.80;1.00;;;;;;5028289;28;20287;-55
2022/06/27 03:45:13;;;;;;;12.03;11.03;;;24.10;1.00;;;;;;5026044;28;20193;-53
2022/06/27 03:48:05;;;;;;;11.23;10.43;;;24.30;1.00;;;;;;5023107;28;20220;-54
2022/06/27 03:50:32;;;;;;;11.47;10.33;;;24.30;1.00;;;;;;5027389;28;20193;-56
2022/06/27 03:52:58;;;;;;;11.10;10.30;;;24.50;1.00;;;;;;5027579;28;20514;-54
2022/06/27 03:55:24;;;;;;;11.40;10.60;;;24.70;1.00;;;;;;5028469;28;20451;-53
2022/06/27 03:57:55;;;;;;;10.87;10.13;;;24.80;1.00;;;;;;5043160;28;20185;-53
2022/06/27 04:00:23;;;;;;;11.70;10.80;;;24.70;1.00;;;;;;5029003;28;21741;-54
2022/06/27 04:02:48;;;;;;;11.40;10.40;;;24.60;1.00;;;;;;5027228;28;20534;-53
2022/06/27 04:05:14;;;;;;;12.20;11.20;;;24.50;1.00;;;;;;5019293;28;20860;-53
2022/06/27 04:07:40;;;;;;;12.33;11.23;;;24.50;1.00;;;;;;5024707;28;20212;-52
2022/06/27 04:10:10;;;;;;;12.40;11.40;;;24.40;1.00;;;;;;5027006;28;20185;-53
2022/06/27 04:12:37;;;;;;;11.53;10.63;;;24.30;1.00;;;;;;5025449;28;20207;-54
2022/06/27 04:15:04;;;;;;;12.97;11.93;;;24.10;1.00;;;;;;5026386;28;20501;-54
2022/06/27 04:17:30;;;;;;;12.03;11.03;;;24.10;1.00;;;;;;5022568;28;20985;-53
2022/06/27 04:19:56;;;;;;;11.70;10.80;;;24.10;1.00;;;;;;5026855;28;20447;-53
2022/06/27 04:22:21;;;;;;;11.60;10.70;;;24.00;1.00;;;;;;5028804;28;20205;-55
2022/06/27 04:24:47;;;;;;;12.80;11.77;;;24.10;1.00;;;;;;5027767;28;20231;-53
2022/06/27 04:27:13;;;;;;;12.40;11.50;;;24.10;1.00;;;;;;5026874;28;20582;-54
2022/06/27 04:29:39;;;;;;;12.40;11.40;;;24.10;1.00;;;;;;5023510;28;20451;-55
2022/06/27 04:32:07;;;;;;;12.30;11.20;;;24.20;1.00;;;;;;5020617;28;21023;-55
2022/06/27 04:34:33;;;;;;;12.30;11.20;;;24.20;1.00;;;;;;5028335;28;20534;-53
2022/06/27 04:36:59;;;;;;;11.77;10.97;;;24.30;1.00;;;;;;5028475;28;20435;-54
2022/06/27 04:39:25;;;;;;;11.20;10.40;;;24.30;1.00;;;;;;5028032;28;20469;-55
2022/06/27 04:41:51;;;;;;;12.60;11.30;;;24.40;1.00;;;;;;5024054;28;20439;-52
2022/06/27 04:44:21;;;;;;;12.53;11.53;;;24.50;1.00;;;;;;5032226;28;20223;-54
2022/06/27 04:46:49;;;;;;;11.87;10.87;;;24.50;1.00;;;;;;5026019;28;20505;-54
2022/06/27 04:49:16;;;;;;;11.23;10.23;;;24.70;1.00;;;;;;5031921;28;20776;-54
2022/06/27 04:51:43;;;;;;;11.50;10.60;;;24.70;1.00;;;;;;5030555;28;20474;-54
2022/06/27 04:54:10;;;;;;;11.90;10.80;;;24.80;1.00;;;;;;5032786;28;20431;-56
2022/06/27 04:56:37;;;;;;;11.93;11.03;;;24.80;1.00;;;;;;5030594;28;20518;-55
2022/06/27 04:59:03;;;;;;;11.63;10.73;;;24.70;1.00;;;;;;5033096;28;20996;-55
2022/06/27 05:01:29;;;;;;;11.33;10.43;;;24.80;1.00;;;;;;5030231;28;20540;-56
2022/06/27 05:03:54;;;;;;;10.40;9.60;;;24.90;1.00;;;;;;5031387;28;20439;-55
2022/06/27 05:06:20;;;;;;;11.17;10.47;;;25.00;1.00;;;;;;5031778;28;20642;-54
2022/06/27 05:08:46;;;;;;;10.93;10.13;;;25.10;1.00;;;;;;5034461;28;20235;-54
2022/06/27 05:11:11;;;;;;;10.30;9.60;;;25.20;1.00;;;;;;5036540;28;20230;-56
2022/06/27 05:13:37;;;;;;;10.70;9.63;;;25.30;1.00;;;;;;5044874;28;20216;-55
2022/06/27 05:16:05;;;;;;;11.07;9.63;;;25.20;1.00;;;;;;5033263;28;20558;-54
2022/06/27 05:18:32;;;;;;;11.60;10.60;;;25.30;1.00;;;;;;5032415;28;20176;-54
2022/06/27 05:20:57;;;;;;;10.60;9.80;;;25.30;1.00;;;;;;5031329;28;20455;-54
2022/06/27 05:23:23;;;;;;;11.27;10.27;;;25.30;1.00;;;;;;5032180;28;20442;-54
2022/06/27 05:25:49;;;;;;;10.50;9.60;;;25.40;1.00;;;;;;5031542;28;20204;-53
2022/06/27 05:28:14;;;;;;;9.70;8.90;;;25.60;1.00;;;;;;5030779;28;20228;-55
2022/06/27 05:30:40;;;;;;;10.20;9.40;;;25.70;1.00;;;;;;5031482;28;20193;-55
2022/06/27 05:33:06;;;;;;;10.63;9.60;;;25.80;1.00;;;;;;5029545;28;20653;-54
2022/06/27 05:35:32;;;;;;;10.20;9.30;;;25.90;1.00;;;;;;5031215;28;20256;-52
2022/06/27 05:37:59;;;;;;;9.57;8.77;;;26.00;1.00;;;;;;5031913;28;20432;-55
2022/06/27 05:40:25;;;;;;;10.43;9.63;;;26.10;1.00;;;;;;5031197;28;20461;-56
2022/06/27 05:42:53;;;;;;;10.90;9.87;;;26.20;1.00;;;;;;5030699;28;20451;-52
2022/06/27 05:45:19;;;;;;;9.90;8.50;;;26.30;1.00;;;;;;5034350;28;20573;-52
2022/06/27 05:47:45;;;;;;;9.93;9.17;;;26.40;1.00;;;;;;5046721;28;20502;-55
2022/06/27 05:50:12;;;;;;;9.93;8.70;;;26.50;1.00;;;;;;5039001;28;20460;-56
2022/06/27 05:52:39;;;;;;;18.90;9.20;;;26.50;1.00;;;;;;5030854;28;20566;-54
2022/06/27 05:55:06;;;;;;;9.53;8.80;;;26.50;1.00;;;;;;5030872;28;20480;-55
2022/06/27 05:57:31;;;;;;;9.23;8.53;;;26.60;1.00;;;;;;5029829;28;20448;-56
2022/06/27 05:59:58;;;;;;;10.17;8.63;;;26.70;1.00;;;;;;5029577;28;20505;-54
2022/06/27 06:02:25;;;;;;;9.90;9.10;;;26.80;1.00;;;;;;5029299;28;20196;-55
2022/06/27 06:04:51;;;;;;;13.50;8.53;;;27.00;1.00;;;;;;5035823;28;20545;-54
2022/06/27 06:07:17;;;;;;;10.50;9.53;;;27.00;1.00;;;;;;5027495;28;20475;-55
2022/06/27 06:09:43;;;;;;;8.73;8.03;;;27.20;1.00;;;;;;5047355;28;20522;-54
2022/06/27 06:12:11;;;;;;;11.43;10.43;;;27.40;1.00;;;;;;5033488;28;20413;-53
2022/06/27 06:14:37;;;;;;;8.57;7.87;;;27.40;1.00;;;;;;5031721;28;20777;-53
2022/06/27 06:17:04;;;;;;;8.33;7.53;;;27.60;1.00;;;;;;5030610;28;20438;-55
2022/06/27 06:19:31;;;;;;;8.20;7.60;;;27.70;1.00;;;;;;5028088;28;20452;-54
2022/06/27 06:21:57;;;;;;;7.13;6.43;;;27.80;1.00;;;;;;5033912;28;20439;-52
2022/06/27 06:24:24;;;;;;;8.47;7.70;;;27.80;1.00;;;;;;5034499;28;20414;-54
2022/06/27 06:26:52;;;;;;;8.87;8.07;;;28.00;1.00;;;;;;5033987;28;20975;-55
2022/06/27 06:29:18;;;;;;;9.57;7.40;;;28.20;1.00;;;;;;5029014;28;20482;-55
2022/06/27 06:31:45;;;;;;;8.43;7.63;;;28.40;1.00;;;;;;5035212;28;20436;-55
2022/06/27 06:34:14;;;;;;;26.17;8.87;;;28.50;1.00;;;;;;5031506;28;20537;-54
2022/06/27 06:36:41;;;;;;;7.53;7.03;;;28.50;1.00;;;;;;5031294;28;20530;-53
2022/06/27 06:39:08;;;;;;;7.70;7.00;;;28.60;1.00;;;;;;5029216;28;20497;-55
2022/06/27 06:41:35;;;;;;;7.23;6.40;;;28.70;1.00;;;;;;5029505;28;20440;-55
2022/06/27 06:44:05;;;;;;;6.47;5.53;;;28.70;1.00;;;;;;5035200;28;22542;-56
2022/06/27 06:46:32;;;;;;;8.60;7.03;;;28.80;1.00;;;;;;5029266;28;20454;-55
2022/06/27 06:49:02;;;;;;;8.03;6.47;;;28.90;1.00;;;;;;5034997;28;21012;-54
2022/06/27 06:51:31;;;;;;;7.00;5.93;;;29.10;1.00;;;;;;5033116;28;20930;-56
2022/06/27 06:53:57;;;;;;;7.43;6.70;;;29.30;1.00;;;;;;5044149;28;20438;-54
2022/06/27 06:56:22;;;;;;;10.30;6.43;;;29.30;1.00;;;;;;5033880;28;20531;-55
2022/06/27 06:58:48;;;;;;;6.20;5.60;;;29.20;1.00;;;;;;5042215;28;20955;-54
2022/06/27 07:01:14;;;;;;;6.00;5.20;;;29.20;1.00;;;;;;5041384;28;20799;-54
2022/06/27 07:03:40;;;;;;;6.03;5.53;;;29.20;1.00;;;;;;5035494;28;20530;-54
2022/06/27 07:06:05;;;;;;;6.00;5.43;;;29.20;1.00;;;;;;5030414;28;20279;-53
2022/06/27 07:08:32;;;;;;;7.30;5.20;;;29.40;1.00;;;;;;5036392;28;20212;-54
2022/06/27 07:10:58;;;;;;;5.80;5.40;;;29.50;1.00;;;;;;5044139;28;20172;-52
2022/06/27 07:13:24;;;;;;;5.67;5.17;;;29.70;1.00;;;;;;5037315;28;20457;-55
2022/06/27 07:15:50;;;;;;;6.40;6.00;;;29.80;1.00;;;;;;5046608;28;20180;-55
2022/06/27 07:18:17;;;;;;;5.70;5.20;;;29.90;1.00;;;;;;5029284;28;20423;-54
2022/06/27 07:20:43;;;;;;;6.20;5.53;;;30.10;1.00;;;;;;5043176;28;20458;-56
2022/06/27 07:23:09;;;;;;;6.30;5.10;;;30.20;1.00;;;;;;5037527;28;20508;-55
2022/06/27 07:25:36;;;;;;;6.93;6.43;;;30.20;1.00;;;;;;5037950;28;20552;-54
2022/06/27 07:28:01;;;;;;;5.93;5.40;;;30.30;1.00;;;;;;5032418;28;20980;-52
2022/06/27 07:30:28;;;;;;;5.77;5.37;;;30.50;1.00;;;;;;5036006;28;20418;-53
2022/06/27 07:32:54;;;;;;;6.57;5.80;;;30.60;1.00;;;;;;5035243;28;20194;-55
2022/06/27 07:35:20;;;;;;;6.93;5.53;;;30.50;1.00;;;;;;5036323;28;20832;-54
2022/06/27 07:37:48;;;;;;;5.97;5.37;;;30.50;1.00;;;;;;5030594;28;20204;-55
2022/06/27 07:40:21;;;;;;;5.60;5.03;;;30.60;1.00;;;;;;5027899;28;20426;-54
2022/06/27 07:42:49;;;;;;;8.70;5.20;;;30.50;1.00;;;;;;5026403;28;20479;-56
2022/06/27 07:45:15;;;;;;;5.93;5.20;;;30.50;1.00;;;;;;5029036;28;20753;-53
2022/06/27 07:47:44;;;;;;;5.30;4.77;;;30.50;1.00;;;;;;5035672;28;20475;-54
2022/06/27 07:50:11;;;;;;;6.27;4.80;;;30.60;1.00;;;;;;5027806;28;20451;-54
2022/06/27 07:55:24;;;;;;;4.70;4.30;;;30.70;1.00;;;;;;5037495;28;20425;-54
2022/06/27 07:57:52;;;;;;;7.00;3.80;;;30.90;1.00;;;;;;5030080;28;20435;-55
2022/06/27 08:00:18;;;;;;;5.73;4.30;;;30.90;1.00;;;;;;5029000;28;20541;-55
2022/06/27 08:02:44;;;;;;;4.63;4.23;;;31.20;1.00;;;;;;5028560;28;20856;-54
2022/06/27 08:05:10;;;;;;;3.90;3.67;;;31.30;1.00;;;;;;5028746;28;20431;-53
2022/06/27 08:07:36;;;;;;;3.70;3.40;;;31.50;1.00;;;;;;5034759;28;20212;-54
2022/06/27 08:10:04;;;;;;;8.10;4.50;;;31.50;1.00;;;;;;5038823;28;20427;-54
2022/06/27 08:12:30;;;;;;;3.97;3.63;;;31.40;1.00;;;;;;5038233;28;20427;-55
2022/06/27 08:14:56;;;;;;;3.97;3.67;;;31.50;1.00;;;;;;5027161;28;21044;-55
2022/06/27 08:17:23;;;;;;;18.60;4.03;;;31.60;1.00;;;;;;5040200;28;20463;-55
2022/06/27 08:19:50;;;;;;;3.77;3.47;;;31.70;1.00;;;;;;5032214;28;20242;-55
2022/06/27 08:22:15;;;;;;;3.93;3.63;;;31.70;1.00;;;;;;5026235;28;20459;-53
2022/06/27 08:24:42;;;;;;;9.93;3.83;;;31.80;1.00;;;;;;5029613;28;20474;-53
2022/06/27 08:27:08;;;;;;;3.50;2.97;;;31.90;1.00;;;;;;5032987;28;20225;-53
2022/06/27 08:29:34;;;;;;;5.30;3.07;;;32.00;1.00;;;;;;5033725;28;20447;-54
2022/06/27 08:32:00;;;;;;;2.93;2.73;;;32.00;1.00;;;;;;5039169;28;20188;-53
2022/06/27 08:34:26;;;;;;;3.83;3.53;;;32.10;1.00;;;;;;5050475;28;20499;-55
2022/06/27 08:36:52;;;;;;;3.37;3.17;;;32.10;1.00;;;;;;5037371;28;20646;-54
2022/06/27 08:39:18;;;;;;;3.40;3.20;;;32.30;1.00;;;;;;5044317;28;20736;-55
2022/06/27 08:41:45;;;;;;;4.80;2.83;;;32.30;1.00;;;;;;5034326;28;20207;-53
2022/06/27 08:44:12;;;;;;;3.20;3.00;;;32.40;1.00;;;;;;5028142;28;20529;-55
2022/06/27 08:46:38;;;;;;;4.00;3.13;;;32.40;1.00;;;;;;5033220;28;20933;-54
2022/06/27 08:49:05;;;;;;;5.93;3.13;;;32.40;1.00;;;;;;5027491;28;20454;-54
2022/06/27 08:51:32;;;;;;;4.03;3.10;;;32.60;1.00;;;;;;5033444;28;20498;-58
2022/06/27 08:53:58;;;;;;;3.40;3.20;;;32.60;1.00;;;;;;5030601;28;20438;-55
2022/06/27 08:56:24;;;;;;;4.03;3.03;;;32.60;1.00;;;;;;5032391;28;20924;-54
2022/06/27 08:58:52;;;;;;;3.20;2.90;;;32.60;1.00;;;;;;5028650;28;20481;-53
2022/06/27 09:01:22;;;;;;;3.97;3.67;;;32.70;1.00;;;;;;5031619;28;20446;-53
2022/06/27 09:04:10;;;;;;;2.90;2.70;;;32.60;1.00;;;;;;5038513;28;20423;-54
2022/06/27 09:06:43;;;;;;;3.33;3.03;;;32.90;1.00;;;;;;5052994;28;20419;-54
2022/06/27 09:09:09;;;;;;;3.30;2.60;;;33.10;1.00;;;;;;5052678;28;20437;-53
2022/06/27 09:11:41;;;;;;;2.80;2.60;;;33.40;1.00;;;;;;5052864;28;20906;-54
2022/06/27 09:14:37;;;;;;;5.63;3.07;;;33.40;1.00;;;;;;5052821;28;20463;-53
2022/06/27 09:17:15;;;;;;;4.23;2.90;;;33.50;1.00;;;;;;5052798;28;20416;-54
2022/06/27 09:19:48;;;;;;;3.93;3.33;;;33.70;1.00;;;;;;5045498;28;20477;-55
2022/06/27 09:22:16;;;;;;;3.43;2.50;;;33.80;1.00;;;;;;5049390;28;20430;-54
2022/06/27 09:25:03;;;;;;;3.20;2.90;;;33.90;1.00;;;;;;5034464;28;20426;-55
2022/06/27 09:27:47;;;;;;;3.90;2.73;;;34.00;1.00;;;;;;5032655;28;20567;-53
2022/06/27 09:30:22;;;;;;;3.97;2.97;;;33.80;1.00;;;;;;5032587;28;20422;-54
2022/06/27 09:32:51;;;;;;;3.30;3.00;;;33.90;1.00;;;;;;5031087;28;21181;-53
2022/06/27 09:35:33;;;;;;;5.03;3.47;;;34.30;1.00;;;;;;5032170;28;20454;-54
2022/06/27 09:38:04;;;;;;;3.37;3.07;;;34.20;1.00;;;;;;5034616;28;20421;-54
2022/06/27 09:40:33;;;;;;;4.10;3.50;;;34.00;1.00;;;;;;5032186;28;20417;-53
2022/06/27 09:42:59;;;;;;;4.43;2.97;;;33.90;1.00;;;;;;5052098;28;20500;-54
2022/06/27 09:45:29;;;;;;;3.37;2.83;;;34.00;1.00;;;;;;5052450;28;20421;-55
2022/06/27 09:48:03;;;;;;;3.23;3.03;;;34.00;1.00;;;;;;5051897;28;20864;-54
2022/06/27 09:50:32;;;;;;;3.70;3.40;;;34.30;1.00;;;;;;5031329;28;20413;-54
2022/06/27 09:52:59;;;;;;;3.50;3.10;;;34.50;1.00;;;;;;5032161;28;20444;-55
2022/06/27 09:55:25;;;;;;;4.20;3.27;;;34.40;1.00;;;;;;5032687;28;20899;-53
2022/06/27 09:57:53;;;;;;;3.23;2.93;;;34.30;1.00;;;;;;5050808;28;20453;-53
2022/06/27 10:00:20;;;;;;;2.80;2.50;;;34.00;1.00;;;;;;5052082;28;20454;-54
2022/06/27 10:02:47;;;;;;;2.90;2.70;;;33.60;1.00;;;;;;5043505;28;20532;-55
2022/06/27 10:05:18;;;;;;;4.47;3.10;;;33.40;1.00;;;;;;5030256;28;20418;-54
2022/06/27 10:07:59;;;;;;;2.97;2.77;;;33.50;1.00;;;;;;5051785;28;20477;-54
2022/06/27 10:10:28;;;;;;;2.80;2.60;;;33.70;1.00;;;;;;5047649;28;20508;-54
2022/06/27 10:12:58;;;;;;;3.77;2.67;;;34.00;1.00;;;;;;5035923;28;20463;-55
2022/06/27 10:15:32;;;;;;;2.80;2.60;;;34.00;1.00;;;;;;5031729;28;20406;-55
2022/06/27 10:18:01;;;;;;;2.93;2.63;;;34.10;1.00;;;;;;5033815;28;20929;-55
2022/06/27 10:20:29;;;;;;;3.30;2.97;;;34.00;1.00;;;;;;5031804;28;20826;-55
2022/06/27 10:23:03;;;;;;;3.70;3.40;;;34.00;1.00;;;;;;5032755;28;20944;-56
2022/06/27 10:25:29;;;;;;;4.63;3.17;;;34.00;1.00;;;;;;5035603;28;20437;-55
2022/06/27 10:28:10;;;;;;;3.13;2.83;;;34.20;1.00;;;;;;5045472;28;20528;-55
2022/06/27 10:30:44;;;;;;;3.60;3.30;;;34.40;1.00;;;;;;5031256;28;20593;-53
2022/06/27 10:33:28;;;;;;;5.43;3.00;;;34.50;1.00;;;;;;5031083;28;20435;-54
2022/06/27 10:35:57;;;;;;;8.13;3.03;;;34.50;1.00;;;;;;5031383;28;20406;-54
2022/06/27 10:38:38;;;;;;;4.33;2.70;;;34.80;1.00;;;;;;5047195;28;20431;-54
2022/06/27 10:41:08;;;;;;;5.57;2.77;;;35.00;1.00;;;;;;5051610;28;20471;-54
2022/06/27 10:43:36;;;;;;;2.53;2.33;;;35.10;1.00;;;;;;5049909;28;20446;-54
2022/06/27 10:46:11;;;;;;;3.20;2.67;;;35.20;1.00;;;;;;5050861;28;20532;-54
2022/06/27 10:48:46;;;;;;;3.10;2.90;;;35.10;1.00;;;;;;5050827;28;20468;-54
2022/06/27 10:51:18;;;;;;;2.53;2.37;;;35.00;1.00;;;;;;5036201;28;20786;-54
2022/06/27 10:53:48;;;;;;;4.33;3.20;;;34.80;1.00;;;;;;5043435;28;20514;-55
2022/06/27 10:56:34;;;;;;;5.13;2.93;;;34.70;1.00;;;;;;5050917;28;20431;-55
2022/06/27 10:59:27;;;;;;;3.07;2.83;;;34.50;1.00;;;;;;5029925;28;20442;-55
2022/06/27 11:01:58;;;;;;;3.40;3.10;;;34.30;1.00;;;;;;5041548;28;20486;-54
2022/06/27 11:04:37;;;;;;;2.83;2.63;;;34.10;1.00;;;;;;5031055;28;20417;-55
2022/06/27 11:07:08;;;;;;;3.10;2.90;;;34.20;1.00;;;;;;5030163;28;20443;-55
2022/06/27 11:09:38;;;;;;;4.70;3.40;;;34.60;1.00;;;;;;5039130;28;20793;-54
2022/06/27 11:12:05;;;;;;;3.27;2.70;;;34.60;1.00;;;;;;5040573;28;20443;-55
2022/06/27 11:14:42;;;;;;;6.47;3.03;;;34.70;1.00;;;;;;5030772;28;20432;-56
2022/06/27 11:17:25;;;;;;;4.20;3.13;;;34.50;1.00;;;;;;5030748;28;20438;-55
2022/06/27 11:20:09;;;;;;;3.13;2.60;;;34.50;1.00;;;;;;5030155;28;20692;-56
2022/06/27 11:22:36;;;;;;;2.73;2.53;;;34.80;1.00;;;;;;5030065;28;20447;-54
2022/06/27 11:25:02;;;;;;;2.83;2.63;;;35.00;1.00;;;;;;5042146;28;20437;-54
2022/06/27 11:27:58;;;;;;;3.00;2.80;;;34.90;1.00;;;;;;5040144;28;20947;-55
2022/06/27 11:33:26;;;;;;;2.83;2.63;;;35.00;1.00;;;;;;5026770;28;20478;-55
2022/06/27 11:35:55;;;;;;;5.43;3.07;;;34.70;1.00;;;;;;5046156;28;20805;-55
2022/06/27 11:38:44;;;;;;;2.80;2.60;;;34.40;1.00;;;;;;5030282;28;20466;-54
2022/06/27 11:41:16;;;;;;;2.83;2.63;;;34.30;1.00;;;;;;5042771;28;20446;-57
2022/06/27 11:43:56;;;;;;;5.43;2.40;;;34.40;1.00;;;;;;5035554;28;20480;-53
2022/06/27 11:46:25;;;;;;;3.33;2.90;;;34.40;1.00;;;;;;5035552;28;20830;-56
2022/06/27 11:48:57;;;;;;;3.77;3.30;;;34.50;1.00;;;;;;5030009;28;20521;-55
2022/06/27 11:51:29;;;;;;;9.13;3.63;;;34.60;1.00;;;;;;5028254;28;20806;-55
2022/06/27 11:54:01;;;;;;;9.33;3.67;;;34.80;1.00;;;;;;5028595;28;20999;-55
2022/06/27 11:56:29;;;;;;;4.10;3.17;;;34.80;1.00;;;;;;5027415;28;20478;-55
2022/06/27 11:58:57;;;;;;;4.60;2.90;;;35.00;1.00;;;;;;5029165;28;20534;-54
2022/06/27 12:01:24;;;;;;;3.23;2.93;;;35.20;1.00;;;;;;5027849;28;20475;-55
2022/06/27 12:04:12;;;;;;;8.83;3.90;;;35.20;1.00;;;;;;5028474;28;20448;-55
2022/06/27 12:06:45;;;;;;;12.40;3.83;;;35.10;1.00;;;;;;5027816;28;20451;-54
2022/06/27 12:09:11;;;;;;;5.83;3.23;;;35.10;1.00;;;;;;5029786;28;20471;-53
2022/06/27 12:11:46;;;;;;;4.20;3.07;;;34.90;1.00;;;;;;5030192;28;20451;-53
2022/06/27 12:14:12;;;;;;;5.03;3.40;;;34.90;1.00;;;;;;5031345;28;20523;-54
2022/06/27 12:16:46;;;;;;;4.83;3.10;;;34.90;1.00;;;;;;5032599;28;20562;-52
2022/06/27 12:19:12;;;;;;;4.43;3.10;;;35.00;1.00;;;;;;5029277;28;20212;-55
2022/06/27 12:21:37;;;;;;;4.83;2.97;;;35.10;1.00;;;;;;5033761;28;20462;-54
2022/06/27 12:24:04;;;;;;;6.87;3.20;;;35.00;1.00;;;;;;5029833;28;20478;-54
2022/06/27 12:26:29;;;;;;;3.30;3.10;;;35.00;1.00;;;;;;5031853;28;20574;-55
2022/06/27 12:28:55;;;;;;;3.80;2.77;;;35.00;1.00;;;;;;5033120;28;20471;-55
2022/06/27 12:31:21;;;;;;;3.10;2.77;;;35.10;1.00;;;;;;5042941;28;20191;-54
2022/06/27 12:33:46;;;;;;;2.87;2.67;;;35.10;1.00;;;;;;5039907;28;20192;-55
2022/06/27 12:36:14;;;;;;;2.80;2.30;;;35.30;1.00;;;;;;5033984;28;20227;-55
2022/06/27 12:38:40;;;;;;;2.80;2.60;;;35.50;1.00;;;;;;5029288;28;20199;-54
2022/06/27 12:41:12;;;;;;;3.00;2.80;;;35.60;1.00;;;;;;5028413;28;20421;-55
2022/06/27 12:43:41;;;;;;;3.90;2.80;;;35.60;1.00;;;;;;5035104;28;20185;-55
2022/06/27 12:46:07;;;;;;;3.23;3.03;;;35.40;1.00;;;;;;5036225;28;20969;-54
2022/06/27 12:48:33;;;;;;;4.63;2.97;;;35.20;1.00;;;;;;5045070;28;20524;-54
2022/06/27 12:50:59;;;;;;;3.60;3.20;;;35.30;1.00;;;;;;5036639;28;20968;-53
2022/06/27 12:53:26;;;;;;;3.30;3.10;;;35.60;1.00;;;;;;5041423;28;20188;-55
2022/06/27 12:55:52;;;;;;;3.43;3.00;;;35.50;1.00;;;;;;5026550;28;21026;-54
2022/06/27 12:58:18;;;;;;;2.83;2.63;;;35.60;1.00;;;;;;5031399;28;20451;-55
2022/06/27 13:00:44;;;;;;;3.37;3.10;;;35.80;1.00;;;;;;5033632;28;20517;-55